createdAt,value
2018-06-23T00:00:02.290Z,11.8
2018-06-23T00:00:52.600Z,11.8
2018-06-23T00:01:42.679Z,11.8
2018-06-23T00:02:32.542Z,11.8
2018-06-23T00:03:22.803Z,11.8
2018-06-23T00:04:12.890Z,11.8
2018-06-23T00:05:02.652Z,11.8
2018-06-23T00:05:52.735Z,11.8
2018-06-23T00:06:43.056Z,11.8
2018-06-23T00:07:33.133Z,11.8
2018-06-23T00:08:22.903Z,11.7
2018-06-23T00:09:13.254Z,11.7
2018-06-23T00:10:03.317Z,11.7
2018-06-23T00:10:53.110Z,11.7
2018-06-23T00:11:43.432Z,11.6
2018-06-23T00:12:33.487Z,11.6
2018-06-23T00:13:23.291Z,11.6
2018-06-23T00:14:13.083Z,11.6
2018-06-23T00:15:03.409Z,11.6
2018-06-23T00:15:53.795Z,11.6
2018-06-23T00:16:43.548Z,11.6
2018-06-23T00:17:33.884Z,11.6
2018-06-23T00:18:23.392Z,11.6
2018-06-23T00:19:13.753Z,11.5
2018-06-23T00:20:04.115Z,11.5
2018-06-23T00:20:53.856Z,11.5
2018-06-23T00:21:44.236Z,11.5
2018-06-23T00:22:34.276Z,11.5
2018-06-23T00:23:23.770Z,11.5
2018-06-23T00:24:14.125Z,11.4
2018-06-23T00:25:04.484Z,11.4
2018-06-23T00:25:54.519Z,11.4
2018-06-23T00:26:43.744Z,11.4
2018-06-23T00:27:34.114Z,11.4
2018-06-23T00:28:24.751Z,11.4
2018-06-23T00:29:14.521Z,11.4
2018-06-23T00:30:04.841Z,11.4
2018-06-23T00:30:54.622Z,11.4
2018-06-23T00:31:44.976Z,11.4
2018-06-23T00:32:34.747Z,11.4
2018-06-23T00:33:24.538Z,11.4
2018-06-23T00:34:15.165Z,11.4
2018-06-23T00:35:05.218Z,11.4
2018-06-23T00:35:55.276Z,11.4
2018-06-23T00:36:45.389Z,11.4
2018-06-23T00:37:35.129Z,11.4
2018-06-23T00:38:25.199Z,11.4
2018-06-23T00:39:15.281Z,11.4
2018-06-23T00:40:05.613Z,11.4
2018-06-23T00:40:55.399Z,11.4
2018-06-23T00:41:45.461Z,11.4
2018-06-23T00:42:35.523Z,11.4
2018-06-23T00:43:25.847Z,11.4
2018-06-23T00:44:15.939Z,11.4
2018-06-23T00:45:06.002Z,11.4
2018-06-23T00:45:56.067Z,11.4
2018-06-23T00:46:46.109Z,11.4
2018-06-23T00:47:36.185Z,11.4
2018-06-23T00:48:25.948Z,11.3
2018-06-23T00:49:16.021Z,11.3
2018-06-23T00:50:06.079Z,11.4
2018-06-23T00:50:55.876Z,11.4
2018-06-23T00:51:46.492Z,11.4
2018-06-23T00:52:36.570Z,11.4
2018-06-23T00:53:26.065Z,11.4
2018-06-23T00:54:16.707Z,11.4
2018-06-23T00:55:06.759Z,11.4
2018-06-23T00:55:56.805Z,11.4
2018-06-23T00:56:46.337Z,11.4
2018-06-23T00:57:36.924Z,11.3
2018-06-23T00:58:27.015Z,11.4
2018-06-23T00:59:16.799Z,11.3
2018-06-23T01:00:07.164Z,11.3
2018-06-23T01:00:57.183Z,11.3
2018-06-23T01:01:47.253Z,11.3
2018-06-23T01:02:37.328Z,11.3
2018-06-23T01:03:27.103Z,11.3
2018-06-23T01:04:17.439Z,11.4
2018-06-23T01:05:06.967Z,11.3
2018-06-23T01:05:57.313Z,11.4
2018-06-23T01:06:47.617Z,11.3
2018-06-23T01:07:37.144Z,11.3
2018-06-23T01:08:27.773Z,11.3
2018-06-23T01:09:17.546Z,11.3
2018-06-23T01:10:07.333Z,11.3
2018-06-23T01:10:57.412Z,11.3
2018-06-23T01:11:47.198Z,11.3
2018-06-23T01:12:37.791Z,11.3
2018-06-23T01:13:27.896Z,11.3
2018-06-23T01:14:17.671Z,11.3
2018-06-23T01:15:08.026Z,11.3
2018-06-23T01:15:58.365Z,11.3
2018-06-23T01:16:48.411Z,11.3
2018-06-23T01:17:38.482Z,11.3
2018-06-23T01:18:28.513Z,11.3
2018-06-23T01:19:18.585Z,11.3
2018-06-23T01:20:08.671Z,11.2
2018-06-23T01:20:58.155Z,11.2
2018-06-23T01:21:48.798Z,11.2
2018-06-23T01:22:38.843Z,11.1
2018-06-23T01:23:28.923Z,11.1
2018-06-23T01:24:18.966Z,11.1
2018-06-23T01:25:09.045Z,11.1
2018-06-23T01:25:58.842Z,11.1
2018-06-23T01:26:48.344Z,11.1
2018-06-23T01:27:39.223Z,11.1
2018-06-23T01:28:29.383Z,11.1
2018-06-23T01:29:19.377Z,11.1
2018-06-23T01:30:09.147Z,11
2018-06-23T01:30:59.222Z,11
2018-06-23T01:31:49.536Z,10.9
2018-06-23T01:32:39.591Z,10.9
2018-06-23T01:33:29.653Z,10.9
2018-06-23T01:34:19.723Z,10.9
2018-06-23T01:35:09.808Z,10.9
2018-06-23T01:35:59.846Z,10.9
2018-06-23T01:36:49.675Z,10.9
2018-06-23T01:37:39.976Z,10.9
2018-06-23T01:38:29.498Z,10.9
2018-06-23T01:39:19.839Z,10.9
2018-06-23T01:40:09.907Z,10.9
2018-06-23T01:40:59.981Z,10.9
2018-06-23T01:41:50.043Z,10.8
2018-06-23T01:42:39.555Z,10.8
2018-06-23T01:43:30.467Z,10.8
2018-06-23T01:44:20.516Z,10.8
2018-06-23T01:45:10.572Z,10.8
2018-06-23T01:46:00.077Z,10.8
2018-06-23T01:46:50.689Z,10.8
2018-06-23T01:47:40.475Z,10.8
2018-06-23T01:48:30.872Z,10.8
2018-06-23T01:49:20.881Z,10.8
2018-06-23T01:50:10.676Z,10.8
2018-06-23T01:51:01.049Z,10.8
2018-06-23T01:51:50.855Z,10.8
2018-06-23T01:52:41.149Z,10.8
2018-06-23T01:53:31.220Z,10.8
2018-06-23T01:54:20.995Z,10.8
2018-06-23T01:55:11.063Z,10.8
2018-06-23T01:56:01.113Z,10.8
2018-06-23T01:56:51.469Z,10.7
2018-06-23T01:57:41.516Z,10.8
2018-06-23T01:58:31.151Z,10.7
2018-06-23T01:59:21.361Z,10.7
2018-06-23T02:00:11.177Z,10.7
2018-06-23T02:01:01.774Z,10.7
2018-06-23T02:01:51.847Z,10.7
2018-06-23T02:02:41.957Z,10.7
2018-06-23T02:03:31.990Z,10.7
2018-06-23T02:04:21.739Z,10.7
2018-06-23T02:05:11.544Z,10.7
2018-06-23T02:06:01.616Z,10.7
2018-06-23T02:06:52.261Z,10.7
2018-06-23T02:07:42.275Z,10.7
2018-06-23T02:08:32.367Z,10.7
2018-06-23T02:09:21.855Z,10.7
2018-06-23T02:10:11.636Z,10.7
2018-06-23T02:11:02.547Z,10.7
2018-06-23T02:11:52.632Z,10.7
2018-06-23T02:12:42.713Z,10.8
2018-06-23T02:13:32.774Z,10.7
2018-06-23T02:14:22.853Z,10.7
2018-06-23T02:15:12.020Z,10.8
2018-06-23T02:16:02.649Z,10.7
2018-06-23T02:16:52.695Z,10.7
2018-06-23T02:17:43.056Z,10.8
2018-06-23T02:18:33.102Z,10.8
2018-06-23T02:19:23.182Z,10.8
2018-06-23T02:20:13.231Z,10.8
2018-06-23T02:21:03.037Z,10.8
2018-06-23T02:21:53.089Z,10.8
2018-06-23T02:22:43.440Z,10.8
2018-06-23T02:23:33.488Z,10.8
2018-06-23T02:24:23.560Z,10.8
2018-06-23T02:25:13.612Z,10.8
2018-06-23T02:26:03.392Z,10.8
2018-06-23T02:26:53.730Z,10.8
2018-06-23T02:27:43.812Z,10.8
2018-06-23T02:28:33.584Z,10.8
2018-06-23T02:29:23.743Z,10.8
2018-06-23T02:30:13.167Z,10.8
2018-06-23T02:31:04.075Z,10.8
2018-06-23T02:31:54.146Z,10.8
2018-06-23T02:32:43.917Z,10.8
2018-06-23T02:33:34.301Z,10.8
2018-06-23T02:34:24.045Z,10.8
2018-06-23T02:35:14.137Z,10.8
2018-06-23T02:36:04.451Z,10.8
2018-06-23T02:36:54.490Z,10.8
2018-06-23T02:37:44.585Z,10.8
2018-06-23T02:38:34.642Z,10.8
2018-06-23T02:39:24.430Z,10.8
2018-06-23T02:40:14.490Z,10.8
2018-06-23T02:41:04.288Z,10.8
2018-06-23T02:41:54.611Z,10.8
2018-06-23T02:42:44.944Z,10.8
2018-06-23T02:43:35.043Z,10.8
2018-06-23T02:44:24.500Z,10.8
2018-06-23T02:45:15.120Z,10.8
2018-06-23T02:46:05.235Z,10.8
2018-06-23T02:46:54.746Z,10.8
2018-06-23T02:47:45.355Z,10.8
2018-06-23T02:48:35.394Z,10.8
2018-06-23T02:49:25.483Z,10.8
2018-06-23T02:50:15.531Z,10.8
2018-06-23T02:51:05.312Z,10.8
2018-06-23T02:51:55.375Z,10.8
2018-06-23T02:52:45.755Z,10.8
2018-06-23T02:53:35.483Z,10.8
2018-06-23T02:54:25.865Z,10.8
2018-06-23T02:55:15.644Z,10.8
2018-06-23T02:56:06.008Z,10.8
2018-06-23T02:56:56.040Z,10.8
2018-06-23T02:57:45.248Z,10.8
2018-06-23T02:58:35.887Z,10.8
2018-06-23T02:59:25.683Z,10.8
2018-06-23T03:00:16.292Z,10.8
2018-06-23T03:01:05.525Z,10.8
2018-06-23T03:01:56.119Z,10.8
2018-06-23T03:02:46.199Z,10.8
2018-06-23T03:03:36.254Z,10.7
2018-06-23T03:04:26.036Z,10.7
2018-06-23T03:05:16.651Z,10.7
2018-06-23T03:06:06.480Z,10.7
2018-06-23T03:06:56.224Z,10.7
2018-06-23T03:07:46.859Z,10.6
2018-06-23T03:08:36.917Z,10.6
2018-06-23T03:09:27.004Z,10.6
2018-06-23T03:10:16.779Z,10.6
2018-06-23T03:11:06.569Z,10.6
2018-06-23T03:11:56.954Z,10.6
2018-06-23T03:12:47.252Z,10.6
2018-06-23T03:13:37.309Z,10.6
2018-06-23T03:14:27.098Z,10.6
2018-06-23T03:15:17.155Z,10.6
2018-06-23T03:16:07.484Z,10.6
2018-06-23T03:16:57.267Z,10.6
2018-06-23T03:17:47.599Z,10.6
2018-06-23T03:18:37.421Z,10.6
2018-06-23T03:19:27.746Z,10.6
2018-06-23T03:20:17.228Z,10.6
2018-06-23T03:21:07.590Z,10.6
2018-06-23T03:21:57.659Z,10.6
2018-06-23T03:22:47.972Z,10.6
2018-06-23T03:23:37.748Z,10.6
2018-06-23T03:24:27.548Z,10.6
2018-06-23T03:25:18.316Z,10.6
2018-06-23T03:26:08.227Z,10.6
2018-06-23T03:26:58.036Z,10.6
2018-06-23T03:27:48.351Z,10.6
2018-06-23T03:28:38.141Z,10.6
2018-06-23T03:29:27.631Z,10.6
2018-06-23T03:30:18.617Z,10.6
2018-06-23T03:31:08.683Z,10.6
2018-06-23T03:31:58.153Z,10.6
2018-06-23T03:32:48.490Z,10.6
2018-06-23T03:33:38.517Z,10.5
2018-06-23T03:34:28.575Z,10.6
2018-06-23T03:35:18.648Z,10.5
2018-06-23T03:36:08.706Z,10.5
2018-06-23T03:36:58.784Z,10.6
2018-06-23T03:37:49.168Z,10.6
2018-06-23T03:38:39.150Z,10.6
2018-06-23T03:39:28.677Z,10.5
2018-06-23T03:40:19.290Z,10.6
2018-06-23T03:41:09.365Z,10.5
2018-06-23T03:41:58.844Z,10.6
2018-06-23T03:42:49.470Z,10.6
2018-06-23T03:43:39.587Z,10.6
2018-06-23T03:44:29.315Z,10.6
2018-06-23T03:45:19.373Z,10.6
2018-06-23T03:46:09.182Z,10.6
2018-06-23T03:46:59.799Z,10.6
2018-06-23T03:47:49.894Z,10.6
2018-06-23T03:48:39.398Z,10.6
2018-06-23T03:49:29.982Z,10.6
2018-06-23T03:50:20.067Z,10.6
2018-06-23T03:51:09.885Z,10.6
2018-06-23T03:51:59.898Z,10.6
2018-06-23T03:52:49.956Z,10.6
2018-06-23T03:53:39.746Z,10.6
2018-06-23T03:54:30.101Z,10.6
2018-06-23T03:55:20.440Z,10.6
2018-06-23T03:56:10.486Z,10.7
2018-06-23T03:56:59.993Z,10.6
2018-06-23T03:57:50.320Z,10.7
2018-06-23T03:58:40.688Z,10.7
2018-06-23T03:59:30.740Z,10.7
2018-06-23T04:00:20.543Z,10.7
2018-06-23T04:01:10.878Z,10.7
2018-06-23T04:02:00.935Z,10.8
2018-06-23T04:02:50.980Z,10.8
2018-06-23T04:03:41.059Z,10.8
2018-06-23T04:04:31.112Z,10.8
2018-06-23T04:05:21.190Z,10.8
2018-06-23T04:06:10.947Z,10.8
2018-06-23T04:07:01.142Z,10.8
2018-06-23T04:07:51.361Z,10.8
2018-06-23T04:08:41.150Z,10.8
2018-06-23T04:09:31.233Z,10.8
2018-06-23T04:10:21.564Z,10.8
2018-06-23T04:11:11.363Z,10.8
2018-06-23T04:12:01.693Z,10.8
2018-06-23T04:12:51.461Z,10.8
2018-06-23T04:13:41.795Z,10.9
2018-06-23T04:14:31.871Z,10.9
2018-06-23T04:15:21.946Z,10.9
2018-06-23T04:16:12.005Z,10.9
2018-06-23T04:17:02.061Z,10.9
2018-06-23T04:17:52.125Z,10.9
2018-06-23T04:18:42.165Z,10.9
2018-06-23T04:19:31.978Z,10.9
2018-06-23T04:20:22.043Z,10.9
2018-06-23T04:21:12.444Z,11
2018-06-23T04:22:02.167Z,11
2018-06-23T04:22:52.217Z,11
2018-06-23T04:23:42.582Z,11
2018-06-23T04:24:32.060Z,11
2018-06-23T04:25:22.392Z,11.1
2018-06-23T04:26:12.451Z,11.1
2018-06-23T04:27:02.542Z,11.1
2018-06-23T04:27:52.849Z,11.1
2018-06-23T04:28:42.624Z,11.1
2018-06-23T04:29:32.985Z,11.2
2018-06-23T04:30:22.759Z,11.2
2018-06-23T04:31:13.125Z,11.2
2018-06-23T04:32:03.189Z,11.3
2018-06-23T04:32:53.240Z,11.3
2018-06-23T04:33:43.297Z,11.3
2018-06-23T04:34:33.101Z,11.4
2018-06-23T04:35:23.426Z,11.4
2018-06-23T04:36:13.512Z,11.4
2018-06-23T04:37:03.550Z,11.4
2018-06-23T04:37:53.626Z,11.4
2018-06-23T04:38:43.434Z,11.5
2018-06-23T04:39:33.464Z,11.6
2018-06-23T04:40:23.829Z,11.6
2018-06-23T04:41:13.854Z,11.6
2018-06-23T04:42:03.966Z,11.6
2018-06-23T04:42:53.732Z,11.7
2018-06-23T04:43:43.503Z,11.7
2018-06-23T04:44:34.123Z,11.7
2018-06-23T04:45:23.901Z,11.8
2018-06-23T04:46:14.237Z,11.8
2018-06-23T04:47:04.319Z,11.8
2018-06-23T04:47:53.801Z,11.8
2018-06-23T04:48:44.452Z,11.8
2018-06-23T04:49:33.926Z,11.8
2018-06-23T04:50:24.274Z,11.8
2018-06-23T04:51:14.353Z,11.8
2018-06-23T04:52:04.100Z,11.8
2018-06-23T04:52:54.752Z,11.9
2018-06-23T04:53:44.243Z,11.8
2018-06-23T04:54:34.591Z,11.9
2018-06-23T04:55:24.918Z,11.8
2018-06-23T04:56:14.978Z,11.8
2018-06-23T04:57:04.770Z,11.8
2018-06-23T04:57:55.131Z,11.9
2018-06-23T04:58:44.918Z,11.9
2018-06-23T04:59:35.250Z,11.9
2018-06-23T05:00:25.583Z,11.8
2018-06-23T05:01:15.405Z,11.8
2018-06-23T05:02:05.407Z,11.8
2018-06-23T05:02:54.925Z,11.9
2018-06-23T05:03:45.542Z,11.9
2018-06-23T05:04:35.065Z,11.9
2018-06-23T05:05:25.413Z,11.9
2018-06-23T05:06:15.470Z,11.9
2018-06-23T05:07:05.537Z,11.9
2018-06-23T05:07:55.849Z,11.9
2018-06-23T05:08:45.985Z,11.9
2018-06-23T05:09:35.985Z,11.9
2018-06-23T05:10:25.497Z,11.9
2018-06-23T05:11:16.110Z,11.9
2018-06-23T05:12:05.626Z,12
2018-06-23T05:12:55.970Z,12
2018-06-23T05:13:46.309Z,12.1
2018-06-23T05:14:36.090Z,12.1
2018-06-23T05:15:26.490Z,12.1
2018-06-23T05:16:16.532Z,12.1
2018-06-23T05:17:06.270Z,12.2
2018-06-23T05:17:56.357Z,12.2
2018-06-23T05:18:46.609Z,12.3
2018-06-23T05:19:36.457Z,12.3
2018-06-23T05:20:26.848Z,12.3
2018-06-23T05:21:16.872Z,12.4
2018-06-23T05:22:06.957Z,12.4
2018-06-23T05:22:56.989Z,12.5
2018-06-23T05:23:47.077Z,12.6
2018-06-23T05:24:37.133Z,12.6
2018-06-23T05:25:26.632Z,12.6
2018-06-23T05:26:17.023Z,12.7
2018-06-23T05:27:06.777Z,12.8
2018-06-23T05:27:57.375Z,12.8
2018-06-23T05:28:47.442Z,12.9
2018-06-23T05:29:37.488Z,12.9
2018-06-23T05:30:27.663Z,12.9
2018-06-23T05:31:17.648Z,13
2018-06-23T05:32:07.408Z,13.1
2018-06-23T05:32:57.519Z,13.1
2018-06-23T05:33:47.267Z,13.1
2018-06-23T05:34:37.619Z,13.2
2018-06-23T05:35:27.382Z,13.3
2018-06-23T05:36:18.034Z,13.3
2018-06-23T05:37:08.098Z,13.3
2018-06-23T05:37:57.858Z,13.4
2018-06-23T05:38:48.192Z,13.4
2018-06-23T05:39:37.411Z,13.5
2018-06-23T05:40:28.335Z,13.5
2018-06-23T05:41:18.402Z,13.6
2018-06-23T05:42:07.616Z,13.6
2018-06-23T05:42:58.243Z,13.6
2018-06-23T05:43:48.310Z,13.7
2018-06-23T05:44:38.670Z,13.8
2018-06-23T05:45:28.412Z,13.8
2018-06-23T05:46:18.482Z,13.8
2018-06-23T05:47:08.819Z,13.8
2018-06-23T05:47:58.871Z,13.9
2018-06-23T05:48:48.978Z,13.9
2018-06-23T05:49:39.001Z,13.9
2018-06-23T05:50:28.793Z,13.9
2018-06-23T05:51:19.515Z,13.9
2018-06-23T05:52:08.942Z,13.9
2018-06-23T05:52:58.977Z,13.9
2018-06-23T05:53:49.341Z,14
2018-06-23T05:54:39.112Z,14
2018-06-23T05:55:29.171Z,14
2018-06-23T05:56:19.573Z,14
2018-06-23T05:57:09.583Z,13.9
2018-06-23T05:57:58.781Z,14
2018-06-23T05:58:49.692Z,14
2018-06-23T05:59:39.810Z,14
2018-06-23T06:00:29.815Z,13.9
2018-06-23T06:01:19.900Z,13.9
2018-06-23T06:02:09.968Z,13.9
2018-06-23T06:03:00.010Z,13.9
2018-06-23T06:03:50.113Z,13.9
2018-06-23T06:04:39.895Z,13.9
2018-06-23T06:05:29.927Z,13.9
2018-06-23T06:06:20.287Z,13.8
2018-06-23T06:07:10.277Z,13.8
2018-06-23T06:08:00.412Z,13.8
2018-06-23T06:08:50.444Z,13.8
2018-06-23T06:09:40.528Z,13.8
2018-06-23T06:10:30.305Z,13.8
2018-06-23T06:11:20.371Z,13.8
2018-06-23T06:12:10.762Z,13.7
2018-06-23T06:13:00.795Z,13.7
2018-06-23T06:13:50.862Z,13.7
2018-06-23T06:14:40.885Z,13.7
2018-06-23T06:15:30.738Z,13.7
2018-06-23T06:16:21.032Z,13.7
2018-06-23T06:17:11.100Z,13.6
2018-06-23T06:18:01.159Z,13.7
2018-06-23T06:18:51.202Z,13.7
2018-06-23T06:19:41.281Z,13.7
2018-06-23T06:20:31.333Z,13.7
2018-06-23T06:21:21.382Z,13.8
2018-06-23T06:22:11.196Z,13.8
2018-06-23T06:23:01.274Z,13.8
2018-06-23T06:23:52.077Z,13.8
2018-06-23T06:24:41.355Z,13.9
2018-06-23T06:25:30.867Z,13.9
2018-06-23T06:26:21.772Z,14
2018-06-23T06:27:11.829Z,14.1
2018-06-23T06:28:01.616Z,14.3
2018-06-23T06:28:52.021Z,14.4
2018-06-23T06:29:41.484Z,14.6
2018-06-23T06:30:32.093Z,14.9
2018-06-23T06:31:22.164Z,15.1
2018-06-23T06:32:11.947Z,15.4
2018-06-23T06:33:02.278Z,15.6
2018-06-23T06:33:52.363Z,15.9
2018-06-23T06:34:42.419Z,16.1
2018-06-23T06:35:32.275Z,16.4
2018-06-23T06:36:22.540Z,16.7
2018-06-23T06:37:12.615Z,16.9
2018-06-23T06:38:01.848Z,17.1
2018-06-23T06:38:52.762Z,17.3
2018-06-23T06:39:42.787Z,17.4
2018-06-23T06:40:32.875Z,17.6
2018-06-23T06:41:22.907Z,17.8
2018-06-23T06:42:12.703Z,17.9
2018-06-23T06:43:02.767Z,18
2018-06-23T06:43:53.124Z,18.1
2018-06-23T06:44:42.803Z,18.3
2018-06-23T06:45:32.984Z,18.4
2018-06-23T06:46:22.774Z,18.6
2018-06-23T06:48:03.145Z,18.8
2018-06-23T06:48:53.480Z,19.1
2018-06-23T06:49:43.013Z,19.3
2018-06-23T06:50:33.059Z,19.4
2018-06-23T06:51:23.417Z,19.6
2018-06-23T06:52:13.806Z,19.9
2018-06-23T06:53:03.528Z,20.1
2018-06-23T06:53:53.871Z,20.3
2018-06-23T06:54:43.944Z,20.6
2018-06-23T06:55:33.978Z,20.8
2018-06-23T06:56:24.104Z,21.1
2018-06-23T06:57:14.581Z,21.3
2018-06-23T06:58:04.185Z,21.6
2018-06-23T06:58:54.244Z,21.8
2018-06-23T06:59:43.813Z,22
2018-06-23T07:00:34.369Z,22.3
2018-06-23T07:01:24.164Z,22.5
2018-06-23T07:02:14.516Z,22.8
2018-06-23T07:03:04.285Z,23
2018-06-23T07:03:54.620Z,23.3
2018-06-23T07:04:44.709Z,23.5
2018-06-23T07:05:34.755Z,23.8
2018-06-23T07:06:24.241Z,24.1
2018-06-23T07:07:14.876Z,24.4
2018-06-23T07:08:04.950Z,24.8
2018-06-23T07:08:54.948Z,25.3
2018-06-23T07:09:44.775Z,25.9
2018-06-23T07:10:34.850Z,26.4
2018-06-23T07:11:24.639Z,27.1
2018-06-23T07:12:15.253Z,27.7
2018-06-23T07:13:05.316Z,28.4
2018-06-23T07:13:55.385Z,29.1
2018-06-23T07:14:45.153Z,29.8
2018-06-23T07:15:35.319Z,30.2
2018-06-23T07:16:25.546Z,30.7
2018-06-23T07:17:15.627Z,31.1
2018-06-23T07:18:05.679Z,31.5
2018-06-23T07:18:55.724Z,31.8
2018-06-23T07:19:45.505Z,32.1
2018-06-23T07:20:35.857Z,32.4
2018-06-23T07:21:25.926Z,32.7
2018-06-23T07:22:15.491Z,32.9
2018-06-23T07:23:06.041Z,33.2
2018-06-23T07:23:56.893Z,33.5
2018-06-23T07:24:45.909Z,34
2018-06-23T07:25:35.965Z,34.4
2018-06-23T07:26:26.288Z,34.9
2018-06-23T07:27:16.366Z,35.3
2018-06-23T07:28:06.433Z,35.7
2018-06-23T07:28:56.486Z,35.9
2018-06-23T07:29:46.279Z,36.2
2018-06-23T07:30:36.661Z,36.3
2018-06-23T07:31:26.381Z,36.5
2018-06-23T07:32:16.486Z,36.6
2018-06-23T07:33:06.513Z,36.9
2018-06-23T07:33:56.327Z,37.1
2018-06-23T07:34:47.335Z,37.4
2018-06-23T07:35:36.417Z,37.6
2018-06-23T07:36:27.028Z,37.9
2018-06-23T07:37:16.841Z,38.1
2018-06-23T07:38:07.170Z,38.4
2018-06-23T07:38:57.239Z,38.6
2018-06-23T07:39:47.029Z,38.6
2018-06-23T07:40:37.321Z,38.8
2018-06-23T07:41:27.449Z,38.9
2018-06-23T07:42:17.514Z,39.3
2018-06-23T07:43:07.279Z,39.6
2018-06-23T07:43:57.360Z,40.1
2018-06-23T07:44:47.418Z,40.4
2018-06-23T07:45:37.481Z,40.6
2018-06-23T07:46:27.584Z,41
2018-06-23T07:47:17.911Z,41.3
2018-06-23T07:48:07.926Z,41.8
2018-06-23T07:48:57.981Z,42.3
2018-06-23T07:49:48.038Z,42.7
2018-06-23T07:50:37.835Z,43.1
2018-06-23T07:51:28.191Z,43.8
2018-06-23T07:52:18.251Z,44.2
2018-06-23T07:53:08.053Z,44.7
2018-06-23T07:53:57.520Z,45.1
2018-06-23T07:54:48.165Z,45.3
2018-06-23T07:55:38.518Z,45.4
2018-06-23T07:56:28.571Z,45.5
2018-06-23T07:57:18.603Z,45.4
2018-06-23T07:58:08.652Z,45.4
2018-06-23T07:58:58.431Z,45.4
2018-06-23T07:59:48.242Z,45.5
2018-06-23T08:00:38.588Z,45.5
2018-06-23T08:01:29.003Z,45.5
2018-06-23T08:02:18.963Z,45.4
2018-06-23T08:03:09.039Z,45.4
2018-06-23T08:03:58.808Z,45.3
2018-06-23T08:04:48.868Z,45.2
2018-06-23T08:05:38.681Z,45.3
2018-06-23T08:06:29.030Z,45.3
2018-06-23T08:07:19.372Z,45.3
2018-06-23T08:08:09.426Z,45.3
2018-06-23T08:08:59.199Z,45.3
2018-06-23T08:09:49.248Z,45.3
2018-06-23T08:10:39.594Z,45.3
2018-06-23T08:11:29.656Z,45.5
2018-06-23T08:12:19.425Z,45.7
2018-06-23T08:13:09.771Z,45.8
2018-06-23T08:13:59.871Z,45.8
2018-06-23T08:14:49.911Z,45.8
2018-06-23T08:15:39.689Z,45.9
2018-06-23T08:16:30.039Z,46
2018-06-23T08:17:19.855Z,46.1
2018-06-23T08:18:10.165Z,46.3
2018-06-23T08:19:00.198Z,46.5
2018-06-23T08:19:50.346Z,46.9
2018-06-23T08:20:39.787Z,47.3
2018-06-23T08:21:30.421Z,47.9
2018-06-23T08:22:20.171Z,48.4
2018-06-23T08:23:10.288Z,49.1
2018-06-23T08:24:00.349Z,49.8
2018-06-23T08:24:50.671Z,50.4
2018-06-23T08:25:40.446Z,50.9
2018-06-23T08:26:31.531Z,51.3
2018-06-23T08:27:20.847Z,51.7
2018-06-23T08:28:10.655Z,52.1
2018-06-23T08:29:00.951Z,52.7
2018-06-23T08:29:51.118Z,53.4
2018-06-23T08:30:41.097Z,54.1
2018-06-23T08:31:31.159Z,54.5
2018-06-23T08:32:21.199Z,55.1
2018-06-23T08:33:11.257Z,55.7
2018-06-23T08:34:01.325Z,57.6
2018-06-23T08:34:51.374Z,57.9
2018-06-23T08:35:40.907Z,54.3
2018-06-23T08:36:31.509Z,48.8
2018-06-23T08:37:21.412Z,42.8
2018-06-23T08:38:11.369Z,39.8
2018-06-23T08:39:01.692Z,38.2
2018-06-23T08:39:51.768Z,37.3
2018-06-23T08:40:41.819Z,36.8
2018-06-23T08:41:31.882Z,36.7
2018-06-23T08:42:21.963Z,36.9
2018-06-23T08:43:12.013Z,37.3
2018-06-23T08:44:02.084Z,37.9
2018-06-23T08:44:52.150Z,38.7
2018-06-23T08:45:42.189Z,39.8
2018-06-23T08:46:32.277Z,41.1
2018-06-23T08:47:22.343Z,42.5
2018-06-23T08:48:12.449Z,43.7
2018-06-23T08:49:02.577Z,44.8
2018-06-23T08:49:52.537Z,45.9
2018-06-23T08:50:42.297Z,47.1
2018-06-23T08:51:32.679Z,48.3
2018-06-23T08:52:22.686Z,49.6
2018-06-23T08:53:12.479Z,51
2018-06-23T08:54:02.545Z,52.4
2018-06-23T08:54:52.924Z,54.1
2018-06-23T08:55:42.955Z,55.6
2018-06-23T08:56:32.466Z,57.3
2018-06-23T08:57:23.071Z,59.6
2018-06-23T08:58:12.321Z,62.8
2018-06-23T08:59:02.652Z,60.6
2018-06-23T08:59:53.006Z,57.3
2018-06-23T09:00:43.321Z,53.3
2018-06-23T09:01:33.400Z,50.1
2018-06-23T09:02:23.447Z,48.6
2018-06-23T09:03:13.229Z,49.3
2018-06-23T09:04:03.578Z,51.5
2018-06-23T09:04:53.645Z,53.6
2018-06-23T09:05:43.720Z,54.8
2018-06-23T09:06:33.770Z,54.2
2018-06-23T09:07:23.293Z,52.6
2018-06-23T09:08:13.371Z,51.8
2018-06-23T09:09:03.998Z,51.8
2018-06-23T09:09:54.049Z,52.6
2018-06-23T09:10:44.081Z,52.9
2018-06-23T09:11:34.154Z,53.3
2018-06-23T09:12:24.257Z,53.8
2018-06-23T09:13:14.004Z,53.9
2018-06-23T09:14:04.344Z,53.4
2018-06-23T09:14:54.417Z,52.8
2018-06-23T09:15:44.469Z,52.8
2018-06-23T09:16:34.533Z,52.6
2018-06-23T09:17:24.330Z,52.3
2018-06-23T09:18:14.388Z,52.3
2018-06-23T09:19:04.144Z,52.6
2018-06-23T09:19:54.804Z,53.1
2018-06-23T09:20:44.839Z,53.2
2018-06-23T09:21:34.355Z,52.7
2018-06-23T09:22:25.061Z,52.2
2018-06-23T09:24:05.093Z,52.1
2018-06-23T09:25:45.060Z,52.6
2018-06-23T09:26:35.294Z,52.6
2018-06-23T09:27:25.337Z,52.4
2018-06-23T09:28:15.400Z,52.1
2018-06-23T09:29:05.458Z,51.8
2018-06-23T09:29:55.282Z,52.3
2018-06-23T09:30:45.332Z,53.4
2018-06-23T09:31:35.658Z,54.4
2018-06-23T09:32:25.731Z,55.3
2018-06-23T09:33:15.800Z,55.5
2018-06-23T09:34:05.841Z,55.3
2018-06-23T09:34:55.341Z,55
2018-06-23T09:35:46.007Z,54.7
2018-06-23T09:36:35.479Z,54.7
2018-06-23T09:37:25.836Z,54.9
2018-06-23T09:38:16.186Z,54.8
2018-06-23T09:39:06.228Z,54.1
2018-06-23T09:39:55.748Z,53.7
2018-06-23T09:40:45.812Z,53.3
2018-06-23T09:41:35.847Z,52.5
2018-06-23T09:42:26.217Z,52.5
2018-06-23T09:43:16.547Z,53.6
2018-06-23T09:44:06.608Z,54.6
2018-06-23T09:44:56.111Z,55.1
2018-06-23T09:45:46.853Z,55
2018-06-23T09:46:36.803Z,54.6
2018-06-23T09:47:26.872Z,54.1
2018-06-23T09:48:16.918Z,53.9
2018-06-23T09:49:07.063Z,54.3
2018-06-23T09:49:57.061Z,55.1
2018-06-23T09:50:46.563Z,55.7
2018-06-23T09:51:36.924Z,55.9
2018-06-23T09:52:26.693Z,55.6
2018-06-23T09:53:17.023Z,54.9
2018-06-23T09:54:07.101Z,54.3
2018-06-23T09:54:57.170Z,53.8
2018-06-23T09:55:47.672Z,53.8
2018-06-23T09:56:37.577Z,54
2018-06-23T09:57:27.341Z,54.4
2018-06-23T09:58:17.721Z,54.8
2018-06-23T09:59:07.745Z,55.1
2018-06-23T09:59:57.800Z,55.1
2018-06-23T10:00:47.332Z,54.9
2018-06-23T10:01:37.944Z,54.6
2018-06-23T10:02:27.728Z,54.4
2018-06-23T10:03:18.433Z,54.4
2018-06-23T10:04:07.897Z,54.8
2018-06-23T10:04:57.925Z,54.9
2018-06-23T10:05:48.272Z,55.2
2018-06-23T10:06:38.313Z,55.2
2018-06-23T10:07:28.373Z,55.2
2018-06-23T10:08:18.448Z,55.2
2018-06-23T10:09:08.501Z,55.3
2018-06-23T10:09:58.550Z,55.4
2018-06-23T10:10:48.621Z,55.2
2018-06-23T10:11:38.427Z,55.1
2018-06-23T10:12:28.765Z,55.3
2018-06-23T10:13:18.833Z,55.7
2018-06-23T10:14:08.900Z,56.3
2018-06-23T10:14:58.922Z,57.1
2018-06-23T10:15:48.744Z,57.6
2018-06-23T10:16:39.088Z,58.2
2018-06-23T10:17:28.869Z,58.4
2018-06-23T10:19:09.234Z,58.7
2018-06-23T10:19:58.781Z,58.9
2018-06-23T10:20:49.384Z,59.1
2018-06-23T10:21:39.601Z,59.5
2018-06-23T10:22:29.506Z,59.8
2018-06-23T10:23:19.601Z,59.9
2018-06-23T10:24:09.356Z,60.2
2018-06-23T10:24:59.432Z,60.4
2018-06-23T10:25:49.753Z,60.6
2018-06-23T10:26:39.254Z,60.8
2018-06-23T10:27:30.389Z,60.9
2018-06-23T10:28:19.665Z,61.1
2018-06-23T10:29:09.715Z,61.1
2018-06-23T10:30:00.126Z,61.1
2018-06-23T10:30:50.131Z,61.2
2018-06-23T10:31:39.918Z,61.4
2018-06-23T10:32:30.250Z,61.4
2018-06-23T10:33:20.036Z,61.6
2018-06-23T10:34:10.388Z,61.8
2018-06-23T10:35:00.173Z,62
2018-06-23T10:35:50.509Z,62.1
2018-06-23T10:36:40.296Z,62.2
2018-06-23T10:37:30.628Z,62.2
2018-06-23T10:38:20.878Z,62.1
2018-06-23T10:39:10.795Z,62.3
2018-06-23T10:40:01.294Z,62.4
2018-06-23T10:40:50.622Z,62.4
2018-06-23T10:41:40.952Z,62.4
2018-06-23T10:42:31.037Z,62.4
2018-06-23T10:43:21.077Z,62.4
2018-06-23T10:44:11.194Z,62.5
2018-06-23T10:45:00.917Z,62.6
2018-06-23T10:45:51.255Z,62.6
2018-06-23T10:46:41.096Z,62.6
2018-06-23T10:47:30.845Z,62.7
2018-06-23T10:48:21.467Z,62.6
2018-06-23T10:49:11.532Z,62.8
2018-06-23T10:50:01.033Z,62.8
2018-06-23T10:50:51.384Z,62.8
2018-06-23T10:51:41.147Z,62.7
2018-06-23T10:52:31.482Z,62.7
2018-06-23T10:53:21.840Z,62.8
2018-06-23T10:54:11.911Z,63
2018-06-23T10:55:01.688Z,63.1
2018-06-23T10:55:51.475Z,63
2018-06-23T10:56:41.803Z,62.8
2018-06-23T10:57:31.882Z,62.6
2018-06-23T10:58:22.228Z,62.4
2018-06-23T10:59:12.274Z,62.5
2018-06-23T11:00:01.816Z,62.8
2018-06-23T11:00:52.400Z,63
2018-06-23T11:01:41.914Z,63.3
2018-06-23T11:02:32.519Z,63.4
2018-06-23T11:03:22.600Z,63.4
2018-06-23T11:04:12.369Z,63.5
2018-06-23T11:05:03.706Z,63.4
2018-06-23T11:05:52.837Z,63.4
2018-06-23T11:06:42.600Z,63.4
2018-06-23T11:07:32.636Z,63.6
2018-06-23T11:08:22.967Z,63.7
2018-06-23T11:09:13.029Z,63.9
2018-06-23T11:10:03.134Z,63.9
2018-06-23T11:10:52.967Z,63.9